sensor_id;sensor_type;location;lat;lon;timestamp;P1;durP1;ratioP1;P2;durP2;ratioP2
72319;SDS011;60269;52.502;16.732;2024-03-08T00:00:21;31.42;;;10.77;;
72319;SDS011;60269;52.502;16.732;2024-03-08T00:04:13;25.27;;;9.30;;
72319;SDS011;60269;52.502;16.732;2024-03-08T00:07:45;32.50;;;11.43;;
72319;SDS011;60269;52.502;16.732;2024-03-08T00:11:17;34.13;;;11.10;;
72319;SDS011;60269;52.502;16.732;2024-03-08T00:14:49;29.53;;;11.73;;
72319;SDS011;60269;52.502;16.732;2024-03-08T00:18:21;32.08;;;10.88;;
72319;SDS011;60269;52.502;16.732;2024-03-08T00:21:54;25.92;;;10.35;;
72319;SDS011;60269;52.502;16.732;2024-03-08T00:25:27;30.70;;;11.23;;
72319;SDS011;60269;52.502;16.732;2024-03-08T00:28:59;33.70;;;11.80;;
72319;SDS011;60269;52.502;16.732;2024-03-08T00:32:31;30.98;;;11.80;;
72319;SDS011;60269;52.502;16.732;2024-03-08T00:36:03;34.00;;;11.32;;
72319;SDS011;60269;52.502;16.732;2024-03-08T00:39:36;27.40;;;10.17;;
72319;SDS011;60269;52.502;16.732;2024-03-08T00:43:07;30.65;;;10.68;;
72319;SDS011;60269;52.502;16.732;2024-03-08T00:46:40;31.63;;;10.05;;
72319;SDS011;60269;52.502;16.732;2024-03-08T00:50:11;29.73;;;10.17;;
72319;SDS011;60269;52.502;16.732;2024-03-08T00:53:44;29.67;;;9.68;;
72319;SDS011;60269;52.502;16.732;2024-03-08T00:57:16;29.15;;;10.30;;
72319;SDS011;60269;52.502;16.732;2024-03-08T01:00:48;22.42;;;8.88;;
72319;SDS011;60269;52.502;16.732;2024-03-08T01:04:21;23.13;;;8.43;;
72319;SDS011;60269;52.502;16.732;2024-03-08T01:07:54;30.67;;;9.90;;
72319;SDS011;60269;52.502;16.732;2024-03-08T01:11:26;28.17;;;9.43;;
72319;SDS011;60269;52.502;16.732;2024-03-08T01:14:59;23.43;;;9.43;;
72319;SDS011;60269;52.502;16.732;2024-03-08T01:18:31;31.52;;;10.25;;
72319;SDS011;60269;52.502;16.732;2024-03-08T01:22:03;25.13;;;9.68;;
72319;SDS011;60269;52.502;16.732;2024-03-08T01:25:36;26.53;;;10.07;;
72319;SDS011;60269;52.502;16.732;2024-03-08T01:29:08;28.05;;;9.77;;
72319;SDS011;60269;52.502;16.732;2024-03-08T01:32:40;30.08;;;10.35;;
72319;SDS011;60269;52.502;16.732;2024-03-08T01:36:12;28.67;;;9.90;;
72319;SDS011;60269;52.502;16.732;2024-03-08T01:39:47;26.43;;;9.30;;
72319;SDS011;60269;52.502;16.732;2024-03-08T01:43:19;30.05;;;10.10;;
72319;SDS011;60269;52.502;16.732;2024-03-08T01:46:52;28.45;;;10.30;;
72319;SDS011;60269;52.502;16.732;2024-03-08T01:50:25;28.57;;;10.27;;
72319;SDS011;60269;52.502;16.732;2024-03-08T01:53:57;34.95;;;10.80;;
72319;SDS011;60269;52.502;16.732;2024-03-08T01:57:31;25.38;;;10.00;;
72319;SDS011;60269;52.502;16.732;2024-03-08T02:01:05;28.90;;;9.80;;
72319;SDS011;60269;52.502;16.732;2024-03-08T02:04:37;28.38;;;8.93;;
72319;SDS011;60269;52.502;16.732;2024-03-08T02:08:10;27.77;;;8.77;;
72319;SDS011;60269;52.502;16.732;2024-03-08T02:11:46;23.80;;;8.98;;
72319;SDS011;60269;52.502;16.732;2024-03-08T02:15:19;33.50;;;9.40;;
72319;SDS011;60269;52.502;16.732;2024-03-08T02:18:51;28.58;;;9.90;;
72319;SDS011;60269;52.502;16.732;2024-03-08T02:22:23;26.58;;;9.65;;
72319;SDS011;60269;52.502;16.732;2024-03-08T02:25:56;26.80;;;9.80;;
72319;SDS011;60269;52.502;16.732;2024-03-08T02:29:28;28.60;;;10.93;;
72319;SDS011;60269;52.502;16.732;2024-03-08T02:33:01;35.90;;;12.45;;
72319;SDS011;60269;52.502;16.732;2024-03-08T02:36:33;38.27;;;11.10;;
72319;SDS011;60269;52.502;16.732;2024-03-08T02:40:06;31.20;;;10.30;;
72319;SDS011;60269;52.502;16.732;2024-03-08T02:43:38;37.70;;;10.77;;
72319;SDS011;60269;52.502;16.732;2024-03-08T02:47:10;38.20;;;12.27;;
72319;SDS011;60269;52.502;16.732;2024-03-08T02:50:42;41.20;;;12.50;;
72319;SDS011;60269;52.502;16.732;2024-03-08T02:54:14;39.13;;;12.07;;
72319;SDS011;60269;52.502;16.732;2024-03-08T02:57:49;39.95;;;12.00;;
72319;SDS011;60269;52.502;16.732;2024-03-08T03:01:21;36.87;;;10.40;;
72319;SDS011;60269;52.502;16.732;2024-03-08T03:04:54;30.63;;;10.20;;
72319;SDS011;60269;52.502;16.732;2024-03-08T03:08:27;35.75;;;10.52;;
72319;SDS011;60269;52.502;16.732;2024-03-08T03:12:00;37.53;;;11.60;;
72319;SDS011;60269;52.502;16.732;2024-03-08T03:15:31;29.75;;;10.48;;
72319;SDS011;60269;52.502;16.732;2024-03-08T03:19:05;25.65;;;9.82;;
72319;SDS011;60269;52.502;16.732;2024-03-08T03:22:37;33.50;;;10.13;;
72319;SDS011;60269;52.502;16.732;2024-03-08T03:26:10;29.93;;;9.90;;
72319;SDS011;60269;52.502;16.732;2024-03-08T03:29:45;34.45;;;10.48;;
72319;SDS011;60269;52.502;16.732;2024-03-08T03:33:21;27.70;;;9.88;;
72319;SDS011;60269;52.502;16.732;2024-03-08T03:36:54;25.27;;;8.70;;
72319;SDS011;60269;52.502;16.732;2024-03-08T03:40:30;33.13;;;10.82;;
72319;SDS011;60269;52.502;16.732;2024-03-08T03:44:02;29.33;;;9.55;;
72319;SDS011;60269;52.502;16.732;2024-03-08T03:47:35;32.10;;;10.33;;
72319;SDS011;60269;52.502;16.732;2024-03-08T03:51:06;27.85;;;10.57;;
72319;SDS011;60269;52.502;16.732;2024-03-08T03:54:39;29.48;;;9.23;;
72319;SDS011;60269;52.502;16.732;2024-03-08T03:58:11;28.55;;;9.65;;
72319;SDS011;60269;52.502;16.732;2024-03-08T04:01:43;25.77;;;9.90;;
72319;SDS011;60269;52.502;16.732;2024-03-08T04:05:15;36.03;;;11.55;;
72319;SDS011;60269;52.502;16.732;2024-03-08T04:08:47;23.13;;;9.00;;
72319;SDS011;60269;52.502;16.732;2024-03-08T04:12:19;27.73;;;7.67;;
72319;SDS011;60269;52.502;16.732;2024-03-08T04:15:50;26.55;;;10.40;;
72319;SDS011;60269;52.502;16.732;2024-03-08T04:19:22;30.65;;;9.43;;
72319;SDS011;60269;52.502;16.732;2024-03-08T04:22:55;28.77;;;10.40;;
72319;SDS011;60269;52.502;16.732;2024-03-08T04:26:28;31.08;;;10.27;;
72319;SDS011;60269;52.502;16.732;2024-03-08T04:30:00;28.50;;;10.18;;
72319;SDS011;60269;52.502;16.732;2024-03-08T04:33:33;31.20;;;11.82;;
72319;SDS011;60269;52.502;16.732;2024-03-08T04:37:07;30.47;;;11.20;;
72319;SDS011;60269;52.502;16.732;2024-03-08T04:40:42;26.65;;;10.15;;
72319;SDS011;60269;52.502;16.732;2024-03-08T04:44:15;30.20;;;11.40;;
72319;SDS011;60269;52.502;16.732;2024-03-08T04:47:47;36.40;;;11.77;;
72319;SDS011;60269;52.502;16.732;2024-03-08T04:51:19;30.40;;;11.02;;
72319;SDS011;60269;52.502;16.732;2024-03-08T04:54:51;28.50;;;11.07;;
72319;SDS011;60269;52.502;16.732;2024-03-08T04:58:23;36.13;;;9.90;;
72319;SDS011;60269;52.502;16.732;2024-03-08T05:01:55;37.58;;;11.32;;
72319;SDS011;60269;52.502;16.732;2024-03-08T05:05:27;32.42;;;11.30;;
72319;SDS011;60269;52.502;16.732;2024-03-08T05:09:00;34.13;;;10.75;;
72319;SDS011;60269;52.502;16.732;2024-03-08T05:12:35;32.17;;;11.73;;
72319;SDS011;60269;52.502;16.732;2024-03-08T05:16:07;30.25;;;10.88;;
72319;SDS011;60269;52.502;16.732;2024-03-08T05:19:39;28.13;;;10.55;;
72319;SDS011;60269;52.502;16.732;2024-03-08T05:23:11;32.87;;;11.23;;
72319;SDS011;60269;52.502;16.732;2024-03-08T05:26:43;32.15;;;10.40;;
72319;SDS011;60269;52.502;16.732;2024-03-08T05:30:16;33.50;;;11.10;;
72319;SDS011;60269;52.502;16.732;2024-03-08T05:33:48;30.43;;;11.83;;
72319;SDS011;60269;52.502;16.732;2024-03-08T05:37:21;33.38;;;10.65;;
72319;SDS011;60269;52.502;16.732;2024-03-08T05:40:54;33.75;;;11.00;;
72319;SDS011;60269;52.502;16.732;2024-03-08T05:44:26;36.88;;;13.35;;
72319;SDS011;60269;52.502;16.732;2024-03-08T05:48:00;38.20;;;13.33;;
72319;SDS011;60269;52.502;16.732;2024-03-08T05:51:33;26.85;;;11.05;;
72319;SDS011;60269;52.502;16.732;2024-03-08T05:55:08;25.35;;;10.85;;
72319;SDS011;60269;52.502;16.732;2024-03-08T05:58:41;39.97;;;13.23;;
72319;SDS011;60269;52.502;16.732;2024-03-08T06:02:13;39.42;;;12.95;;
72319;SDS011;60269;52.502;16.732;2024-03-08T06:05:50;34.80;;;13.20;;
72319;SDS011;60269;52.502;16.732;2024-03-08T06:09:22;36.77;;;11.83;;
72319;SDS011;60269;52.502;16.732;2024-03-08T06:12:56;38.63;;;13.10;;
72319;SDS011;60269;52.502;16.732;2024-03-08T06:16:28;40.67;;;13.65;;
72319;SDS011;60269;52.502;16.732;2024-03-08T06:20:01;36.72;;;12.82;;
72319;SDS011;60269;52.502;16.732;2024-03-08T06:23:33;37.90;;;11.97;;
72319;SDS011;60269;52.502;16.732;2024-03-08T06:27:05;33.92;;;12.70;;
72319;SDS011;60269;52.502;16.732;2024-03-08T06:30:37;30.50;;;11.50;;
72319;SDS011;60269;52.502;16.732;2024-03-08T06:34:09;36.37;;;12.87;;
72319;SDS011;60269;52.502;16.732;2024-03-08T06:37:41;40.75;;;13.35;;
72319;SDS011;60269;52.502;16.732;2024-03-08T06:41:16;37.25;;;12.90;;
72319;SDS011;60269;52.502;16.732;2024-03-08T06:44:48;37.27;;;12.07;;
72319;SDS011;60269;52.502;16.732;2024-03-08T06:48:21;42.58;;;14.75;;
72319;SDS011;60269;52.502;16.732;2024-03-08T06:51:53;37.35;;;15.35;;
72319;SDS011;60269;52.502;16.732;2024-03-08T06:55:25;45.00;;;17.83;;
72319;SDS011;60269;52.502;16.732;2024-03-08T06:58:57;56.83;;;19.53;;
72319;SDS011;60269;52.502;16.732;2024-03-08T07:02:28;55.38;;;20.35;;
72319;SDS011;60269;52.502;16.732;2024-03-08T07:06:00;56.65;;;20.13;;
72319;SDS011;60269;52.502;16.732;2024-03-08T07:09:39;56.63;;;20.17;;
72319;SDS011;60269;52.502;16.732;2024-03-08T07:13:12;52.28;;;21.00;;
72319;SDS011;60269;52.502;16.732;2024-03-08T07:16:44;48.22;;;20.73;;
72319;SDS011;60269;52.502;16.732;2024-03-08T07:20:16;51.23;;;23.00;;
72319;SDS011;60269;52.502;16.732;2024-03-08T07:23:50;58.10;;;23.77;;
72319;SDS011;60269;52.502;16.732;2024-03-08T07:27:41;46.80;;;19.40;;
72319;SDS011;60269;52.502;16.732;2024-03-08T07:31:13;42.35;;;17.17;;
72319;SDS011;60269;52.502;16.732;2024-03-08T07:34:58;46.13;;;21.77;;
72319;SDS011;60269;52.502;16.732;2024-03-08T07:38:30;50.35;;;21.80;;
72319;SDS011;60269;52.502;16.732;2024-03-08T07:42:02;43.05;;;18.55;;
72319;SDS011;60269;52.502;16.732;2024-03-08T07:45:34;40.97;;;18.27;;
72319;SDS011;60269;52.502;16.732;2024-03-08T07:49:07;42.38;;;18.00;;
72319;SDS011;60269;52.502;16.732;2024-03-08T07:52:42;36.83;;;16.42;;
72319;SDS011;60269;52.502;16.732;2024-03-08T07:56:14;40.97;;;18.17;;
72319;SDS011;60269;52.502;16.732;2024-03-08T07:59:48;43.53;;;15.73;;
72319;SDS011;60269;52.502;16.732;2024-03-08T08:03:21;40.67;;;15.55;;
72319;SDS011;60269;52.502;16.732;2024-03-08T08:06:53;37.70;;;17.13;;
72319;SDS011;60269;52.502;16.732;2024-03-08T08:10:26;36.13;;;16.53;;
72319;SDS011;60269;52.502;16.732;2024-03-08T08:14:00;39.65;;;17.50;;
72319;SDS011;60269;52.502;16.732;2024-03-08T08:17:32;37.72;;;17.40;;
72319;SDS011;60269;52.502;16.732;2024-03-08T08:21:07;40.33;;;17.90;;
72319;SDS011;60269;52.502;16.732;2024-03-08T08:24:39;37.80;;;16.80;;
72319;SDS011;60269;52.502;16.732;2024-03-08T08:28:11;38.92;;;16.08;;
72319;SDS011;60269;52.502;16.732;2024-03-08T08:31:44;34.97;;;16.43;;
72319;SDS011;60269;52.502;16.732;2024-03-08T08:35:16;37.30;;;16.85;;
72319;SDS011;60269;52.502;16.732;2024-03-08T08:38:50;31.00;;;15.07;;
72319;SDS011;60269;52.502;16.732;2024-03-08T08:42:22;32.20;;;14.07;;
72319;SDS011;60269;52.502;16.732;2024-03-08T08:45:53;35.30;;;14.23;;
72319;SDS011;60269;52.502;16.732;2024-03-08T08:49:27;31.48;;;14.68;;
72319;SDS011;60269;52.502;16.732;2024-03-08T08:52:59;25.52;;;11.90;;
72319;SDS011;60269;52.502;16.732;2024-03-08T08:56:31;26.77;;;11.50;;
72319;SDS011;60269;52.502;16.732;2024-03-08T09:00:03;25.20;;;9.75;;
72319;SDS011;60269;52.502;16.732;2024-03-08T09:03:40;24.15;;;10.43;;
72319;SDS011;60269;52.502;16.732;2024-03-08T09:07:12;22.23;;;10.60;;
72319;SDS011;60269;52.502;16.732;2024-03-08T09:10:45;22.23;;;10.18;;
72319;SDS011;60269;52.502;16.732;2024-03-08T09:14:21;22.70;;;10.20;;
72319;SDS011;60269;52.502;16.732;2024-03-08T09:17:53;25.48;;;9.38;;
72319;SDS011;60269;52.502;16.732;2024-03-08T09:21:25;20.50;;;9.50;;
72319;SDS011;60269;52.502;16.732;2024-03-08T09:24:59;19.90;;;9.35;;
72319;SDS011;60269;52.502;16.732;2024-03-08T09:28:33;21.08;;;10.60;;
72319;SDS011;60269;52.502;16.732;2024-03-08T09:32:06;20.83;;;10.03;;
72319;SDS011;60269;52.502;16.732;2024-03-08T09:35:39;18.98;;;10.20;;
72319;SDS011;60269;52.502;16.732;2024-03-08T09:39:11;23.48;;;10.38;;
72319;SDS011;60269;52.502;16.732;2024-03-08T09:42:48;25.80;;;10.43;;
72319;SDS011;60269;52.502;16.732;2024-03-08T09:46:20;19.60;;;9.50;;
72319;SDS011;60269;52.502;16.732;2024-03-08T09:49:54;21.15;;;9.48;;
72319;SDS011;60269;52.502;16.732;2024-03-08T09:53:26;20.40;;;9.75;;
72319;SDS011;60269;52.502;16.732;2024-03-08T09:56:59;20.27;;;9.23;;
72319;SDS011;60269;52.502;16.732;2024-03-08T10:00:31;20.45;;;8.57;;
72319;SDS011;60269;52.502;16.732;2024-03-08T10:04:03;16.80;;;7.60;;
72319;SDS011;60269;52.502;16.732;2024-03-08T10:07:35;19.50;;;8.30;;
72319;SDS011;60269;52.502;16.732;2024-03-08T10:11:07;17.90;;;7.28;;
72319;SDS011;60269;52.502;16.732;2024-03-08T10:14:39;17.75;;;7.05;;
72319;SDS011;60269;52.502;16.732;2024-03-08T10:18:12;15.30;;;7.57;;
72319;SDS011;60269;52.502;16.732;2024-03-08T10:21:48;15.45;;;6.95;;
72319;SDS011;60269;52.502;16.732;2024-03-08T10:25:28;18.13;;;7.22;;
72319;SDS011;60269;52.502;16.732;2024-03-08T10:29:02;14.10;;;7.40;;
72319;SDS011;60269;52.502;16.732;2024-03-08T10:32:35;16.37;;;7.60;;
72319;SDS011;60269;52.502;16.732;2024-03-08T10:36:08;17.33;;;8.30;;
72319;SDS011;60269;52.502;16.732;2024-03-08T10:39:45;16.58;;;7.40;;
72319;SDS011;60269;52.502;16.732;2024-03-08T10:43:25;14.90;;;7.57;;
72319;SDS011;60269;52.502;16.732;2024-03-08T10:47:02;16.50;;;7.30;;
72319;SDS011;60269;52.502;16.732;2024-03-08T10:50:45;15.30;;;7.43;;
72319;SDS011;60269;52.502;16.732;2024-03-08T10:54:20;18.73;;;8.67;;
72319;SDS011;60269;52.502;16.732;2024-03-08T10:57:52;16.60;;;8.27;;
72319;SDS011;60269;52.502;16.732;2024-03-08T11:01:26;14.85;;;8.13;;
72319;SDS011;60269;52.502;16.732;2024-03-08T11:04:58;18.75;;;8.55;;
72319;SDS011;60269;52.502;16.732;2024-03-08T11:08:30;17.70;;;8.47;;
72319;SDS011;60269;52.502;16.732;2024-03-08T11:12:18;17.67;;;6.93;;
72319;SDS011;60269;52.502;16.732;2024-03-08T11:16:02;16.92;;;8.20;;
72319;SDS011;60269;52.502;16.732;2024-03-08T11:19:37;15.30;;;7.13;;
72319;SDS011;60269;52.502;16.732;2024-03-08T11:23:11;18.10;;;7.80;;
72319;SDS011;60269;52.502;16.732;2024-03-08T11:26:44;18.67;;;7.55;;
72319;SDS011;60269;52.502;16.732;2024-03-08T11:30:16;15.88;;;8.38;;
72319;SDS011;60269;52.502;16.732;2024-03-08T11:33:56;17.20;;;8.17;;
72319;SDS011;60269;52.502;16.732;2024-03-08T11:37:29;16.52;;;8.23;;
72319;SDS011;60269;52.502;16.732;2024-03-08T11:41:01;16.40;;;8.25;;
72319;SDS011;60269;52.502;16.732;2024-03-08T11:44:36;17.33;;;7.80;;
72319;SDS011;60269;52.502;16.732;2024-03-08T11:48:08;16.05;;;8.32;;
72319;SDS011;60269;52.502;16.732;2024-03-08T11:51:41;14.88;;;7.78;;
72319;SDS011;60269;52.502;16.732;2024-03-08T11:55:13;15.63;;;8.00;;
72319;SDS011;60269;52.502;16.732;2024-03-08T11:58:52;18.95;;;8.52;;
72319;SDS011;60269;52.502;16.732;2024-03-08T12:02:25;17.90;;;8.32;;
72319;SDS011;60269;52.502;16.732;2024-03-08T12:05:57;17.25;;;8.98;;
72319;SDS011;60269;52.502;16.732;2024-03-08T12:09:31;18.53;;;9.13;;
72319;SDS011;60269;52.502;16.732;2024-03-08T12:13:03;19.45;;;8.65;;
72319;SDS011;60269;52.502;16.732;2024-03-08T12:16:37;17.35;;;8.23;;
72319;SDS011;60269;52.502;16.732;2024-03-08T12:20:14;14.30;;;7.80;;
72319;SDS011;60269;52.502;16.732;2024-03-08T12:23:47;15.18;;;8.43;;
72319;SDS011;60269;52.502;16.732;2024-03-08T12:27:26;15.13;;;9.25;;
72319;SDS011;60269;52.502;16.732;2024-03-08T12:31:00;17.33;;;9.20;;
72319;SDS011;60269;52.502;16.732;2024-03-08T12:34:32;15.55;;;8.65;;
72319;SDS011;60269;52.502;16.732;2024-03-08T12:38:06;18.33;;;9.00;;
72319;SDS011;60269;52.502;16.732;2024-03-08T12:41:39;16.08;;;9.77;;
72319;SDS011;60269;52.502;16.732;2024-03-08T12:45:15;14.37;;;7.73;;
72319;SDS011;60269;52.502;16.732;2024-03-08T12:48:47;13.85;;;8.00;;
72319;SDS011;60269;52.502;16.732;2024-03-08T12:52:23;15.82;;;7.95;;
72319;SDS011;60269;52.502;16.732;2024-03-08T12:56:07;13.43;;;8.30;;
72319;SDS011;60269;52.502;16.732;2024-03-08T12:59:59;16.40;;;8.85;;
72319;SDS011;60269;52.502;16.732;2024-03-08T13:04:08;15.82;;;9.15;;
72319;SDS011;60269;52.502;16.732;2024-03-08T13:07:43;14.93;;;8.90;;
72319;SDS011;60269;52.502;16.732;2024-03-08T13:11:19;17.70;;;9.10;;
72319;SDS011;60269;52.502;16.732;2024-03-08T13:14:51;15.70;;;8.20;;
72319;SDS011;60269;52.502;16.732;2024-03-08T13:18:23;16.05;;;9.85;;
72319;SDS011;60269;52.502;16.732;2024-03-08T13:21:55;15.53;;;9.93;;
72319;SDS011;60269;52.502;16.732;2024-03-08T13:25:28;15.75;;;11.15;;
72319;SDS011;60269;52.502;16.732;2024-03-08T13:29:00;15.85;;;10.63;;
72319;SDS011;60269;52.502;16.732;2024-03-08T13:32:32;16.13;;;10.63;;
72319;SDS011;60269;52.502;16.732;2024-03-08T13:36:04;14.20;;;9.77;;
72319;SDS011;60269;52.502;16.732;2024-03-08T13:39:46;17.13;;;9.93;;
72319;SDS011;60269;52.502;16.732;2024-03-08T13:43:18;15.52;;;10.02;;
72319;SDS011;60269;52.502;16.732;2024-03-08T13:46:50;15.77;;;9.93;;
72319;SDS011;60269;52.502;16.732;2024-03-08T13:50:25;17.00;;;9.32;;
72319;SDS011;60269;52.502;16.732;2024-03-08T13:53:58;15.32;;;9.13;;
72319;SDS011;60269;52.502;16.732;2024-03-08T13:57:32;18.47;;;9.67;;
72319;SDS011;60269;52.502;16.732;2024-03-08T14:01:04;16.58;;;10.77;;
72319;SDS011;60269;52.502;16.732;2024-03-08T14:04:43;18.15;;;10.30;;
72319;SDS011;60269;52.502;16.732;2024-03-08T14:08:15;14.40;;;6.95;;
72319;SDS011;60269;52.502;16.732;2024-03-08T14:11:48;12.47;;;6.07;;
72319;SDS011;60269;52.502;16.732;2024-03-08T14:15:20;17.73;;;6.68;;
72319;SDS011;60269;52.502;16.732;2024-03-08T14:18:54;15.25;;;6.65;;
72319;SDS011;60269;52.502;16.732;2024-03-08T14:22:25;14.20;;;6.10;;
72319;SDS011;60269;52.502;16.732;2024-03-08T14:25:58;15.20;;;6.40;;
72319;SDS011;60269;52.502;16.732;2024-03-08T14:29:31;14.00;;;5.95;;
72319;SDS011;60269;52.502;16.732;2024-03-08T14:33:05;12.95;;;6.03;;
72319;SDS011;60269;52.502;16.732;2024-03-08T14:36:37;16.23;;;6.10;;
72319;SDS011;60269;52.502;16.732;2024-03-08T14:40:09;15.18;;;6.30;;
72319;SDS011;60269;52.502;16.732;2024-03-08T14:43:42;16.73;;;5.47;;
72319;SDS011;60269;52.502;16.732;2024-03-08T14:47:18;17.77;;;6.37;;
72319;SDS011;60269;52.502;16.732;2024-03-08T14:50:50;14.43;;;6.03;;
72319;SDS011;60269;52.502;16.732;2024-03-08T14:54:22;14.25;;;6.45;;
72319;SDS011;60269;52.502;16.732;2024-03-08T14:57:54;13.57;;;5.77;;
72319;SDS011;60269;52.502;16.732;2024-03-08T15:01:26;13.90;;;5.93;;
72319;SDS011;60269;52.502;16.732;2024-03-08T15:05:02;14.00;;;6.22;;
72319;SDS011;60269;52.502;16.732;2024-03-08T15:08:40;14.88;;;5.45;;
72319;SDS011;60269;52.502;16.732;2024-03-08T15:12:12;14.37;;;5.63;;
72319;SDS011;60269;52.502;16.732;2024-03-08T15:15:44;17.48;;;6.72;;
72319;SDS011;60269;52.502;16.732;2024-03-08T15:19:17;16.27;;;6.32;;
72319;SDS011;60269;52.502;16.732;2024-03-08T15:22:52;13.37;;;5.90;;
72319;SDS011;60269;52.502;16.732;2024-03-08T15:26:26;15.10;;;6.00;;
72319;SDS011;60269;52.502;16.732;2024-03-08T15:29:59;17.50;;;6.20;;
72319;SDS011;60269;52.502;16.732;2024-03-08T15:33:30;17.70;;;8.48;;
72319;SDS011;60269;52.502;16.732;2024-03-08T15:37:03;15.43;;;7.80;;
72319;SDS011;60269;52.502;16.732;2024-03-08T15:40:36;18.00;;;8.35;;
72319;SDS011;60269;52.502;16.732;2024-03-08T15:44:08;19.95;;;8.50;;
72319;SDS011;60269;52.502;16.732;2024-03-08T15:47:44;16.47;;;8.50;;
72319;SDS011;60269;52.502;16.732;2024-03-08T15:51:16;19.42;;;7.50;;
72319;SDS011;60269;52.502;16.732;2024-03-08T15:54:50;16.75;;;7.93;;
72319;SDS011;60269;52.502;16.732;2024-03-08T15:58:23;20.70;;;7.13;;
72319;SDS011;60269;52.502;16.732;2024-03-08T16:01:55;18.92;;;7.25;;
72319;SDS011;60269;52.502;16.732;2024-03-08T16:05:27;15.35;;;7.78;;
72319;SDS011;60269;52.502;16.732;2024-03-08T16:08:58;18.40;;;8.15;;
72319;SDS011;60269;52.502;16.732;2024-03-08T16:12:34;23.80;;;8.60;;
72319;SDS011;60269;52.502;16.732;2024-03-08T16:16:09;19.08;;;8.27;;
72319;SDS011;60269;52.502;16.732;2024-03-08T16:19:41;18.90;;;9.02;;
72319;SDS011;60269;52.502;16.732;2024-03-08T16:23:13;24.53;;;8.47;;
72319;SDS011;60269;52.502;16.732;2024-03-08T16:26:48;20.77;;;7.88;;
72319;SDS011;60269;52.502;16.732;2024-03-08T16:30:23;24.00;;;8.55;;
72319;SDS011;60269;52.502;16.732;2024-03-08T16:33:55;24.60;;;9.53;;
72319;SDS011;60269;52.502;16.732;2024-03-08T16:37:27;25.35;;;10.57;;
72319;SDS011;60269;52.502;16.732;2024-03-08T16:41:01;30.88;;;11.50;;
72319;SDS011;60269;52.502;16.732;2024-03-08T16:44:36;25.23;;;9.68;;
72319;SDS011;60269;52.502;16.732;2024-03-08T16:48:08;28.43;;;9.73;;
72319;SDS011;60269;52.502;16.732;2024-03-08T16:51:41;22.95;;;9.80;;
72319;SDS011;60269;52.502;16.732;2024-03-08T16:55:13;20.75;;;8.30;;
72319;SDS011;60269;52.502;16.732;2024-03-08T16:58:45;21.33;;;7.57;;
72319;SDS011;60269;52.502;16.732;2024-03-08T17:02:18;24.60;;;9.10;;
72319;SDS011;60269;52.502;16.732;2024-03-08T17:05:50;21.50;;;9.10;;
72319;SDS011;60269;52.502;16.732;2024-03-08T17:09:26;23.13;;;9.40;;
72319;SDS011;60269;52.502;16.732;2024-03-08T17:12:59;27.73;;;9.45;;
72319;SDS011;60269;52.502;16.732;2024-03-08T17:16:32;28.00;;;10.40;;
72319;SDS011;60269;52.502;16.732;2024-03-08T17:20:04;25.05;;;9.73;;
72319;SDS011;60269;52.502;16.732;2024-03-08T17:23:45;28.23;;;9.30;;
72319;SDS011;60269;52.502;16.732;2024-03-08T17:27:17;27.73;;;11.13;;
72319;SDS011;60269;52.502;16.732;2024-03-08T17:30:48;30.42;;;10.38;;
72319;SDS011;60269;52.502;16.732;2024-03-08T17:34:20;27.13;;;10.47;;
72319;SDS011;60269;52.502;16.732;2024-03-08T17:37:53;22.90;;;9.35;;
72319;SDS011;60269;52.502;16.732;2024-03-08T17:41:28;27.90;;;10.85;;
72319;SDS011;60269;52.502;16.732;2024-03-08T17:45:00;31.90;;;11.83;;
72319;SDS011;60269;52.502;16.732;2024-03-08T17:48:32;35.60;;;11.60;;
72319;SDS011;60269;52.502;16.732;2024-03-08T17:52:04;29.65;;;11.85;;
72319;SDS011;60269;52.502;16.732;2024-03-08T17:55:36;25.13;;;10.43;;
72319;SDS011;60269;52.502;16.732;2024-03-08T17:59:12;28.50;;;10.77;;
72319;SDS011;60269;52.502;16.732;2024-03-08T18:02:45;38.40;;;12.00;;
72319;SDS011;60269;52.502;16.732;2024-03-08T18:06:18;33.80;;;11.73;;
72319;SDS011;60269;52.502;16.732;2024-03-08T18:09:51;31.97;;;11.83;;
72319;SDS011;60269;52.502;16.732;2024-03-08T18:13:23;34.70;;;11.55;;
72319;SDS011;60269;52.502;16.732;2024-03-08T18:16:55;35.20;;;12.63;;
72319;SDS011;60269;52.502;16.732;2024-03-08T18:20:28;31.30;;;12.43;;
72319;SDS011;60269;52.502;16.732;2024-03-08T18:24:03;38.15;;;13.20;;
72319;SDS011;60269;52.502;16.732;2024-03-08T18:27:36;34.15;;;12.88;;
72319;SDS011;60269;52.502;16.732;2024-03-08T18:31:08;36.75;;;12.18;;
72319;SDS011;60269;52.502;16.732;2024-03-08T18:34:43;33.03;;;11.70;;
72319;SDS011;60269;52.502;16.732;2024-03-08T18:38:16;31.35;;;12.23;;
72319;SDS011;60269;52.502;16.732;2024-03-08T18:41:51;32.13;;;12.32;;
72319;SDS011;60269;52.502;16.732;2024-03-08T18:45:24;33.33;;;11.63;;
72319;SDS011;60269;52.502;16.732;2024-03-08T18:48:56;27.63;;;11.18;;
72319;SDS011;60269;52.502;16.732;2024-03-08T18:52:28;32.53;;;11.18;;
72319;SDS011;60269;52.502;16.732;2024-03-08T18:56:02;28.63;;;11.40;;
72319;SDS011;60269;52.502;16.732;2024-03-08T18:59:35;37.40;;;12.27;;
72319;SDS011;60269;52.502;16.732;2024-03-08T19:03:09;33.08;;;11.75;;
72319;SDS011;60269;52.502;16.732;2024-03-08T19:06:41;31.83;;;11.15;;
72319;SDS011;60269;52.502;16.732;2024-03-08T19:10:13;32.17;;;11.27;;
72319;SDS011;60269;52.502;16.732;2024-03-08T19:13:50;30.15;;;10.65;;
72319;SDS011;60269;52.502;16.732;2024-03-08T19:17:22;28.17;;;10.40;;
72319;SDS011;60269;52.502;16.732;2024-03-08T19:20:54;32.50;;;11.70;;
72319;SDS011;60269;52.502;16.732;2024-03-08T19:24:28;26.75;;;10.10;;
72319;SDS011;60269;52.502;16.732;2024-03-08T19:28:04;29.27;;;10.70;;
72319;SDS011;60269;52.502;16.732;2024-03-08T19:31:38;32.60;;;12.40;;
72319;SDS011;60269;52.502;16.732;2024-03-08T19:35:13;34.63;;;11.95;;
72319;SDS011;60269;52.502;16.732;2024-03-08T19:38:49;31.45;;;11.60;;
72319;SDS011;60269;52.502;16.732;2024-03-08T19:42:24;30.42;;;12.23;;
72319;SDS011;60269;52.502;16.732;2024-03-08T19:45:59;35.77;;;13.30;;
72319;SDS011;60269;52.502;16.732;2024-03-08T19:49:31;34.92;;;12.52;;
72319;SDS011;60269;52.502;16.732;2024-03-08T19:53:07;36.92;;;12.98;;
72319;SDS011;60269;52.502;16.732;2024-03-08T19:56:40;27.60;;;10.93;;
72319;SDS011;60269;52.502;16.732;2024-03-08T20:00:16;31.50;;;11.45;;
72319;SDS011;60269;52.502;16.732;2024-03-08T20:03:49;33.67;;;12.52;;
72319;SDS011;60269;52.502;16.732;2024-03-08T20:07:22;33.70;;;13.73;;
72319;SDS011;60269;52.502;16.732;2024-03-08T20:10:54;34.03;;;13.07;;
72319;SDS011;60269;52.502;16.732;2024-03-08T20:14:28;37.08;;;14.80;;
72319;SDS011;60269;52.502;16.732;2024-03-08T20:18:01;37.55;;;13.18;;
72319;SDS011;60269;52.502;16.732;2024-03-08T20:21:34;33.37;;;12.73;;
72319;SDS011;60269;52.502;16.732;2024-03-08T20:25:06;32.28;;;12.00;;
72319;SDS011;60269;52.502;16.732;2024-03-08T20:28:38;34.15;;;13.40;;
72319;SDS011;60269;52.502;16.732;2024-03-08T20:32:16;28.33;;;11.53;;
72319;SDS011;60269;52.502;16.732;2024-03-08T20:35:51;30.55;;;12.40;;